Terminal Aerodrome Forecast
Issued by NWS

Current Version | Previous Version | Graphics & Text | Print | Product List | Glossary On
Versions: 1 2 3 4 5 6 7 8 9 10 11 12 13 14 15
000
FTUS41 KILN 302300 RRA
TAFLCK
TAF
KLCK 302344Z 3100/3124 24004KT P6SM SCT050
      TEMPO 3109/3113 4SM BR
     FM311500 24006KT P6SM SCT040
     FM312300 26003KT P6SM SKC=

USA.gov is the U.S. government's official web portal to all federal, state and local government web resources and services.